AAL9 KSGF-KMIA
Flight info
| Callsign | AAL9 |
|---|---|
| Flight time | 2h 8m |
| Altitude | 37000 |
| Route | SGF AVARR LUKKY HLI JILLS FRDDO ACORI FROGZ5 |
| Aircraft | B738/M-SABDFGLRVWY/LB2 |
Departure
| Time | 2026-04-26 15:59 |
|---|---|
| Airport | Springfield Branson National Airport (KSGF) |
Arrival
| Time | 2026-04-26 18:07 |
|---|---|
| Airport | Miami International Airport (KMIA) |
| Time | Latitude | Longitude | Altitude | Speed | Heading |
|---|---|---|---|---|---|
| 2026-04-26 15:40 | 37.24026 | -93.39522 | 1265 ft | 0 kts | 287° |
| 2026-04-26 15:48 | 37.24025 | -93.39507 | 1264 ft | 2 kts | 277° |
| 2026-04-26 15:49 | 37.24020 | -93.39489 | 1265 ft | 2 kts | 302° |
| 2026-04-26 15:49 | 37.24010 | -93.39476 | 1265 ft | 2 kts | 329° |
| 2026-04-26 15:49 | 37.23996 | -93.39469 | 1265 ft | 2 kts | 356° |
| 2026-04-26 15:49 | 37.23983 | -93.39471 | 1265 ft | 0 kts | 19° |
| 2026-04-26 15:50 | 37.23977 | -93.39474 | 1265 ft | 1 kts | 22° |
| 2026-04-26 15:50 | 37.23976 | -93.39475 | 1265 ft | 0 kts | 22° |
| 2026-04-26 15:53 | 37.23977 | -93.39475 | 1265 ft | 0 kts | 22° |
| 2026-04-26 15:53 | 37.24003 | -93.39462 | 1265 ft | 8 kts | 20° |
| 2026-04-26 15:53 | 37.24062 | -93.39434 | 1264 ft | 9 kts | 20° |
| 2026-04-26 15:53 | 37.24120 | -93.39455 | 1264 ft | 9 kts | 306° |
| 2026-04-26 15:54 | 37.24154 | -93.39526 | 1263 ft | 9 kts | 326° |
| 2026-04-26 15:54 | 37.24232 | -93.39516 | 1262 ft | 13 kts | 21° |
| 2026-04-26 15:54 | 37.24314 | -93.39462 | 1262 ft | 13 kts | 46° |
| 2026-04-26 15:54 | 37.24374 | -93.39372 | 1262 ft | 13 kts | 51° |
| 2026-04-26 15:55 | 37.24430 | -93.39288 | 1262 ft | 11 kts | 37° |
| 2026-04-26 15:55 | 37.24505 | -93.39307 | 1262 ft | 14 kts | 320° |
| 2026-04-26 15:55 | 37.24600 | -93.39402 | 1261 ft | 18 kts | 321° |
| 2026-04-26 15:55 | 37.24705 | -93.39504 | 1261 ft | 19 kts | 322° |
| 2026-04-26 15:56 | 37.24813 | -93.39613 | 1261 ft | 20 kts | 322° |
| 2026-04-26 15:56 | 37.24924 | -93.39720 | 1262 ft | 20 kts | 322° |
| 2026-04-26 15:56 | 37.25032 | -93.39828 | 1263 ft | 19 kts | 322° |
| 2026-04-26 15:56 | 37.25134 | -93.39928 | 1264 ft | 17 kts | 322° |
| 2026-04-26 15:57 | 37.25228 | -93.40019 | 1266 ft | 16 kts | 322° |
| 2026-04-26 15:57 | 37.25317 | -93.40107 | 1267 ft | 15 kts | 322° |
| 2026-04-26 15:57 | 37.25394 | -93.40176 | 1267 ft | 12 kts | 340° |
| 2026-04-26 15:57 | 37.25444 | -93.40159 | 1267 ft | 11 kts | 41° |
| 2026-04-26 15:58 | 37.25502 | -93.40063 | 1267 ft | 8 kts | 68° |
| 2026-04-26 15:58 | 37.25486 | -93.40013 | 1267 ft | 6 kts | 141° |
| 2026-04-26 15:58 | 37.25480 | -93.40006 | 1267 ft | 10 kts | 141° |
| 2026-04-26 15:58 | 37.25213 | -93.39742 | 1264 ft | 84 kts | 142° |
| 2026-04-26 15:59 | 37.24593 | -93.39133 | 1262 ft | 142 kts | 142° |
| 2026-04-26 15:59 | 37.23773 | -93.38300 | 1720 ft | 154 kts | 139° |
| 2026-04-26 15:59 | 37.23045 | -93.37273 | 2344 ft | 162 kts | 123° |
| 2026-04-26 15:59 | 37.22681 | -93.35958 | 3010 ft | 165 kts | 111° |
| 2026-04-26 16:00 | 37.22125 | -93.34686 | 3472 ft | 171 kts | 131° |
| 2026-04-26 16:00 | 37.21408 | -93.33457 | 3883 ft | 185 kts | 125° |
| 2026-04-26 16:00 | 37.20744 | -93.31995 | 4312 ft | 198 kts | 121° |
| 2026-04-26 16:00 | 37.20083 | -93.30421 | 4677 ft | 214 kts | 121° |
| 2026-04-26 16:01 | 37.19344 | -93.28701 | 5075 ft | 229 kts | 121° |
| 2026-04-26 16:01 | 37.18559 | -93.26904 | 5456 ft | 244 kts | 122° |
| 2026-04-26 16:01 | 37.17727 | -93.25005 | 5965 ft | 257 kts | 121° |
| 2026-04-26 16:01 | 37.16851 | -93.22997 | 6570 ft | 268 kts | 121° |
| 2026-04-26 16:02 | 37.15936 | -93.20907 | 7115 ft | 280 kts | 121° |
| 2026-04-26 16:02 | 37.14994 | -93.18749 | 7784 ft | 286 kts | 121° |
| 2026-04-26 16:02 | 37.14045 | -93.16573 | 8482 ft | 291 kts | 121° |
| 2026-04-26 16:02 | 37.13390 | -93.15073 | 8957 ft | 294 kts | 121° |
| 2026-04-26 16:03 | 37.12075 | -93.12065 | 9880 ft | 300 kts | 120° |
| 2026-04-26 16:03 | 37.11063 | -93.09757 | 10417 ft | 310 kts | 120° |
| 2026-04-26 16:03 | 37.10015 | -93.07374 | 10789 ft | 326 kts | 120° |
| 2026-04-26 16:03 | 37.08892 | -93.04814 | 11200 ft | 340 kts | 120° |
| 2026-04-26 16:04 | 37.07739 | -93.02185 | 11536 ft | 357 kts | 119° |
| 2026-04-26 16:04 | 37.06518 | -92.99405 | 11897 ft | 372 kts | 119° |
| 2026-04-26 16:04 | 37.05255 | -92.96531 | 12279 ft | 386 kts | 119° |
| 2026-04-26 16:04 | 37.03937 | -92.93534 | 12902 ft | 392 kts | 119° |
| 2026-04-26 16:05 | 37.02617 | -92.90537 | 13544 ft | 398 kts | 118° |
| 2026-04-26 16:05 | 37.01272 | -92.87485 | 14195 ft | 404 kts | 118° |
| 2026-04-26 16:05 | 36.99929 | -92.84441 | 14876 ft | 409 kts | 118° |
| 2026-04-26 16:05 | 36.98551 | -92.81317 | 15612 ft | 412 kts | 119° |
| 2026-04-26 16:06 | 36.97154 | -92.78157 | 16260 ft | 418 kts | 119° |
| 2026-04-26 16:06 | 36.95761 | -92.75013 | 16950 ft | 422 kts | 119° |
| 2026-04-26 16:06 | 36.94334 | -92.71796 | 17609 ft | 426 kts | 119° |
| 2026-04-26 16:06 | 36.92884 | -92.68529 | 18203 ft | 432 kts | 119° |
| 2026-04-26 16:07 | 36.91429 | -92.65253 | 18836 ft | 436 kts | 119° |
| 2026-04-26 16:07 | 36.89954 | -92.61935 | 19463 ft | 441 kts | 119° |
| 2026-04-26 16:07 | 36.88460 | -92.58581 | 20126 ft | 444 kts | 119° |
| 2026-04-26 16:07 | 36.86941 | -92.55174 | 20720 ft | 449 kts | 120° |
| 2026-04-26 16:08 | 36.85422 | -92.51771 | 21300 ft | 453 kts | 120° |
| 2026-04-26 16:08 | 36.83890 | -92.48344 | 21785 ft | 459 kts | 120° |
| 2026-04-26 16:08 | 36.82322 | -92.44852 | 22351 ft | 462 kts | 121° |
| 2026-04-26 16:08 | 36.80695 | -92.41407 | 22893 ft | 465 kts | 123° |
| 2026-04-26 16:09 | 36.78860 | -92.38096 | 23398 ft | 468 kts | 129° |
| 2026-04-26 16:09 | 36.76761 | -92.34944 | 23875 ft | 472 kts | 134° |
| 2026-04-26 16:09 | 36.74529 | -92.31941 | 24469 ft | 473 kts | 136° |
| 2026-04-26 16:09 | 36.72230 | -92.28999 | 24919 ft | 478 kts | 138° |
| 2026-04-26 16:10 | 36.69889 | -92.26064 | 25406 ft | 481 kts | 138° |
| 2026-04-26 16:10 | 36.67530 | -92.23120 | 25902 ft | 484 kts | 138° |
| 2026-04-26 16:10 | 36.65151 | -92.20143 | 26369 ft | 488 kts | 138° |
| 2026-04-26 16:10 | 36.62764 | -92.17140 | 26798 ft | 493 kts | 137° |
| 2026-04-26 16:11 | 36.60336 | -92.14070 | 27256 ft | 496 kts | 137° |
| 2026-04-26 16:11 | 36.57951 | -92.11041 | 27658 ft | 500 kts | 137° |
| 2026-04-26 16:11 | 36.55495 | -92.07910 | 28092 ft | 504 kts | 137° |
| 2026-04-26 16:11 | 36.53084 | -92.04829 | 28710 ft | 502 kts | 137° |
| 2026-04-26 16:12 | 36.50678 | -92.01746 | 29406 ft | 498 kts | 137° |
| 2026-04-26 16:12 | 36.48250 | -91.98632 | 30043 ft | 496 kts | 137° |
| 2026-04-26 16:12 | 36.43476 | -91.92521 | 31042 ft | 495 kts | 137° |
| 2026-04-26 16:13 | 36.41104 | -91.89494 | 31421 ft | 497 kts | 137° |
| 2026-04-26 16:13 | 36.38683 | -91.86408 | 31837 ft | 497 kts | 138° |
| 2026-04-26 16:13 | 36.36266 | -91.83329 | 32213 ft | 499 kts | 138° |
| 2026-04-26 16:13 | 36.33861 | -91.80269 | 32641 ft | 499 kts | 138° |
| 2026-04-26 16:14 | 36.31459 | -91.77213 | 33107 ft | 498 kts | 138° |
| 2026-04-26 16:14 | 36.29044 | -91.74146 | 33534 ft | 497 kts | 138° |
| 2026-04-26 16:14 | 36.24207 | -91.68010 | 34332 ft | 498 kts | 138° |
| 2026-04-26 16:15 | 36.21822 | -91.64989 | 34746 ft | 497 kts | 138° |
| 2026-04-26 16:15 | 36.19384 | -91.61901 | 35134 ft | 497 kts | 138° |
| 2026-04-26 16:15 | 36.16985 | -91.58868 | 35511 ft | 498 kts | 138° |
| 2026-04-26 16:16 | 36.12211 | -91.52711 | 36314 ft | 498 kts | 135° |
| 2026-04-26 16:16 | 36.09942 | -91.49455 | 36688 ft | 498 kts | 133° |
| 2026-04-26 16:16 | 36.07774 | -91.46165 | 36943 ft | 501 kts | 132° |
| 2026-04-26 16:16 | 36.05594 | -91.42756 | 36953 ft | 504 kts | 131° |
| 2026-04-26 16:17 | 36.01336 | -91.36017 | 36952 ft | 500 kts | 131° |
| 2026-04-26 16:17 | 35.97033 | -91.29271 | 36952 ft | 502 kts | 132° |
| 2026-04-26 16:18 | 35.90494 | -91.19179 | 36946 ft | 502 kts | 132° |
| 2026-04-26 16:19 | 35.83911 | -91.09113 | 36948 ft | 503 kts | 132° |
| 2026-04-26 16:20 | 35.77334 | -90.99087 | 36949 ft | 504 kts | 132° |
| 2026-04-26 16:20 | 35.70730 | -90.89053 | 36949 ft | 504 kts | 132° |
| 2026-04-26 16:21 | 35.66333 | -90.82389 | 36949 ft | 504 kts | 132° |
| 2026-04-26 16:21 | 35.61907 | -90.75694 | 36951 ft | 505 kts | 132° |
| 2026-04-26 16:22 | 35.57492 | -90.69026 | 36950 ft | 505 kts | 132° |
| 2026-04-26 16:22 | 35.53079 | -90.62370 | 36944 ft | 502 kts | 131° |
| 2026-04-26 16:23 | 35.48674 | -90.55740 | 36939 ft | 502 kts | 131° |
| 2026-04-26 16:23 | 35.44250 | -90.49101 | 36945 ft | 503 kts | 131° |
| 2026-04-26 16:24 | 35.39845 | -90.42502 | 36941 ft | 502 kts | 131° |
| 2026-04-26 16:24 | 35.35438 | -90.35912 | 36947 ft | 504 kts | 131° |
| 2026-04-26 16:25 | 35.30990 | -90.29274 | 36946 ft | 503 kts | 133° |
| 2026-04-26 16:25 | 35.26566 | -90.22682 | 36955 ft | 503 kts | 132° |
| 2026-04-26 16:26 | 35.22120 | -90.16071 | 36958 ft | 503 kts | 132° |
| 2026-04-26 16:26 | 35.17678 | -90.09475 | 36962 ft | 504 kts | 132° |
| 2026-04-26 16:27 | 35.13241 | -90.02900 | 36962 ft | 504 kts | 132° |
| 2026-04-26 16:27 | 35.08804 | -89.96339 | 36966 ft | 505 kts | 132° |
| 2026-04-26 16:28 | 35.04310 | -89.89708 | 36958 ft | 505 kts | 133° |
| 2026-04-26 16:28 | 34.99871 | -89.83168 | 36966 ft | 505 kts | 132° |
| 2026-04-26 16:29 | 34.95391 | -89.76581 | 36966 ft | 505 kts | 132° |
| 2026-04-26 16:29 | 34.90897 | -89.69985 | 36968 ft | 505 kts | 132° |
| 2026-04-26 16:30 | 34.86396 | -89.63393 | 36964 ft | 505 kts | 132° |
| 2026-04-26 16:30 | 34.81907 | -89.56831 | 36962 ft | 505 kts | 132° |
| 2026-04-26 16:31 | 34.77436 | -89.50304 | 36962 ft | 506 kts | 132° |
| 2026-04-26 16:31 | 34.72758 | -89.43951 | 36960 ft | 503 kts | 137° |
| 2026-04-26 16:32 | 34.68681 | -89.38951 | 36958 ft | 503 kts | 138° |
| 2026-04-26 16:32 | 34.62881 | -89.31993 | 36950 ft | 503 kts | 139° |
| 2026-04-26 16:33 | 34.57911 | -89.25983 | 36949 ft | 503 kts | 138° |
| 2026-04-26 16:33 | 34.52987 | -89.19969 | 36947 ft | 502 kts | 138° |
| 2026-04-26 16:34 | 34.48121 | -89.13999 | 36947 ft | 503 kts | 138° |
| 2026-04-26 16:34 | 34.43195 | -89.07955 | 36950 ft | 503 kts | 137° |
| 2026-04-26 16:35 | 34.38274 | -89.01923 | 36954 ft | 504 kts | 138° |
| 2026-04-26 16:35 | 34.33388 | -88.95943 | 36961 ft | 504 kts | 137° |
| 2026-04-26 16:36 | 34.28465 | -88.89929 | 36961 ft | 504 kts | 138° |
| 2026-04-26 16:36 | 34.23541 | -88.83924 | 36960 ft | 504 kts | 138° |
| 2026-04-26 16:37 | 34.18619 | -88.77935 | 36957 ft | 505 kts | 137° |
| 2026-04-26 16:37 | 34.13673 | -88.71925 | 36957 ft | 505 kts | 137° |
| 2026-04-26 16:38 | 34.08722 | -88.65923 | 36952 ft | 507 kts | 138° |
| 2026-04-26 16:38 | 34.03775 | -88.59934 | 36951 ft | 505 kts | 138° |
| 2026-04-26 16:39 | 33.98797 | -88.53919 | 36940 ft | 506 kts | 138° |
| 2026-04-26 16:39 | 33.93842 | -88.47942 | 36942 ft | 505 kts | 138° |
| 2026-04-26 16:40 | 33.88876 | -88.41962 | 36946 ft | 505 kts | 138° |
| 2026-04-26 16:40 | 33.83934 | -88.36022 | 36951 ft | 507 kts | 137° |
| 2026-04-26 16:41 | 33.78944 | -88.30032 | 36950 ft | 506 kts | 139° |
| 2026-04-26 16:41 | 33.73951 | -88.24051 | 36956 ft | 506 kts | 139° |
| 2026-04-26 16:42 | 33.68989 | -88.18116 | 36955 ft | 505 kts | 138° |
| 2026-04-26 16:42 | 33.64000 | -88.12162 | 36959 ft | 506 kts | 139° |
| 2026-04-26 16:43 | 33.59022 | -88.06233 | 36962 ft | 507 kts | 138° |
| 2026-04-26 16:43 | 33.54045 | -88.00315 | 36964 ft | 506 kts | 138° |
| 2026-04-26 16:44 | 33.49056 | -87.94391 | 36959 ft | 507 kts | 138° |
| 2026-04-26 16:44 | 33.44048 | -87.88453 | 36961 ft | 507 kts | 139° |
| 2026-04-26 16:45 | 33.39040 | -87.82526 | 36963 ft | 507 kts | 138° |
| 2026-04-26 16:45 | 33.34046 | -87.76627 | 36964 ft | 507 kts | 138° |
| 2026-04-26 16:46 | 33.29089 | -87.70620 | 36964 ft | 510 kts | 135° |
| 2026-04-26 16:46 | 33.24335 | -87.64361 | 36966 ft | 510 kts | 134° |
| 2026-04-26 16:47 | 33.19638 | -87.58035 | 36967 ft | 510 kts | 134° |
| 2026-04-26 16:47 | 33.14912 | -87.51725 | 36966 ft | 511 kts | 134° |
| 2026-04-26 16:48 | 33.10185 | -87.45483 | 36966 ft | 510 kts | 134° |
| 2026-04-26 16:48 | 33.05415 | -87.39230 | 36966 ft | 510 kts | 135° |
| 2026-04-26 16:49 | 33.00659 | -87.33023 | 36962 ft | 510 kts | 135° |
| 2026-04-26 16:49 | 32.95890 | -87.26807 | 36958 ft | 510 kts | 135° |
| 2026-04-26 16:50 | 32.91094 | -87.20568 | 36957 ft | 510 kts | 135° |
| 2026-04-26 16:50 | 32.86336 | -87.14387 | 36959 ft | 509 kts | 135° |
| 2026-04-26 16:51 | 32.81559 | -87.08192 | 36961 ft | 509 kts | 135° |
| 2026-04-26 16:51 | 32.76763 | -87.01984 | 36963 ft | 509 kts | 135° |
| 2026-04-26 16:52 | 32.72778 | -86.96832 | 36966 ft | 510 kts | 135° |
| 2026-04-26 16:52 | 32.67201 | -86.89635 | 36963 ft | 509 kts | 135° |
| 2026-04-26 16:53 | 32.62423 | -86.83482 | 36963 ft | 508 kts | 135° |
| 2026-04-26 16:53 | 32.57610 | -86.77293 | 36962 ft | 509 kts | 135° |
| 2026-04-26 16:54 | 32.52849 | -86.71179 | 36963 ft | 508 kts | 135° |
| 2026-04-26 16:54 | 32.48051 | -86.65029 | 36964 ft | 510 kts | 135° |
| 2026-04-26 16:55 | 32.43237 | -86.58874 | 36966 ft | 509 kts | 135° |
| 2026-04-26 16:55 | 32.38435 | -86.52741 | 36969 ft | 508 kts | 135° |
| 2026-04-26 16:56 | 32.31216 | -86.43565 | 36966 ft | 509 kts | 136° |
| 2026-04-26 16:57 | 32.26161 | -86.37810 | 36964 ft | 506 kts | 140° |
| 2026-04-26 16:57 | 32.18277 | -86.29527 | 36969 ft | 506 kts | 142° |
| 2026-04-26 16:58 | 32.13900 | -86.24928 | 36971 ft | 507 kts | 141° |
| 2026-04-26 16:59 | 32.05164 | -86.15637 | 36976 ft | 507 kts | 141° |
| 2026-04-26 17:00 | 31.94730 | -86.04462 | 36973 ft | 508 kts | 140° |
| 2026-04-26 17:00 | 31.86931 | -85.96123 | 36972 ft | 508 kts | 140° |
| 2026-04-26 17:01 | 31.81699 | -85.90540 | 36970 ft | 508 kts | 140° |
| 2026-04-26 17:01 | 31.76512 | -85.84920 | 36967 ft | 508 kts | 137° |
| 2026-04-26 17:02 | 31.71633 | -85.78875 | 36960 ft | 511 kts | 134° |
| 2026-04-26 17:02 | 31.66949 | -85.72658 | 36953 ft | 509 kts | 133° |
| 2026-04-26 17:03 | 31.62269 | -85.66423 | 36952 ft | 510 kts | 133° |
| 2026-04-26 17:03 | 31.57563 | -85.60237 | 36955 ft | 510 kts | 133° |
| 2026-04-26 17:04 | 31.52836 | -85.54089 | 36961 ft | 509 kts | 134° |
| 2026-04-26 17:04 | 31.48103 | -85.47968 | 36961 ft | 509 kts | 134° |
| 2026-04-26 17:05 | 31.43332 | -85.41818 | 36965 ft | 508 kts | 134° |
| 2026-04-26 17:05 | 31.38582 | -85.35704 | 36964 ft | 509 kts | 134° |
| 2026-04-26 17:06 | 31.33826 | -85.29594 | 36970 ft | 509 kts | 134° |
| 2026-04-26 17:06 | 31.29086 | -85.23512 | 36967 ft | 508 kts | 134° |
| 2026-04-26 17:07 | 31.24348 | -85.17440 | 36964 ft | 507 kts | 134° |
| 2026-04-26 17:07 | 31.19606 | -85.11375 | 36963 ft | 507 kts | 134° |
| 2026-04-26 17:08 | 31.14865 | -85.05321 | 36956 ft | 507 kts | 134° |
| 2026-04-26 17:08 | 31.10114 | -84.99264 | 36953 ft | 506 kts | 134° |
| 2026-04-26 17:09 | 31.06144 | -84.94209 | 36951 ft | 506 kts | 134° |
| 2026-04-26 17:09 | 31.00596 | -84.87154 | 36955 ft | 507 kts | 134° |
| 2026-04-26 17:10 | 30.95865 | -84.81151 | 36955 ft | 506 kts | 134° |
| 2026-04-26 17:10 | 30.91086 | -84.75097 | 36956 ft | 507 kts | 134° |
| 2026-04-26 17:11 | 30.86321 | -84.69071 | 36955 ft | 505 kts | 134° |
| 2026-04-26 17:11 | 30.81588 | -84.63094 | 36958 ft | 506 kts | 134° |
| 2026-04-26 17:12 | 30.74411 | -84.54043 | 36948 ft | 506 kts | 134° |
| 2026-04-26 17:13 | 30.67272 | -84.45067 | 36940 ft | 506 kts | 133° |
| 2026-04-26 17:14 | 30.60125 | -84.36099 | 36940 ft | 506 kts | 134° |
| 2026-04-26 17:14 | 30.52959 | -84.27130 | 36940 ft | 507 kts | 134° |
| 2026-04-26 17:15 | 30.45782 | -84.18167 | 36938 ft | 506 kts | 134° |
| 2026-04-26 17:16 | 30.40969 | -84.12199 | 36936 ft | 507 kts | 135° |
| 2026-04-26 17:16 | 30.35700 | -84.06861 | 36936 ft | 503 kts | 147° |
| 2026-04-26 17:17 | 30.29892 | -84.02479 | 36930 ft | 500 kts | 152° |
| 2026-04-26 17:17 | 30.23869 | -83.98472 | 36928 ft | 499 kts | 154° |
| 2026-04-26 17:18 | 30.17774 | -83.94527 | 36925 ft | 500 kts | 154° |
| 2026-04-26 17:18 | 30.11746 | -83.90616 | 36924 ft | 498 kts | 154° |
| 2026-04-26 17:19 | 30.02682 | -83.84679 | 36927 ft | 499 kts | 153° |
| 2026-04-26 17:19 | 29.96707 | -83.80748 | 36931 ft | 497 kts | 153° |
| 2026-04-26 17:20 | 29.91680 | -83.77439 | 36929 ft | 499 kts | 153° |
| 2026-04-26 17:20 | 29.84682 | -83.72835 | 36926 ft | 499 kts | 153° |
| 2026-04-26 17:21 | 29.78642 | -83.68867 | 36928 ft | 498 kts | 153° |
| 2026-04-26 17:21 | 29.72629 | -83.64923 | 36928 ft | 498 kts | 153° |
| 2026-04-26 17:22 | 29.66622 | -83.60991 | 36928 ft | 498 kts | 153° |
| 2026-04-26 17:22 | 29.60628 | -83.57075 | 36933 ft | 498 kts | 153° |
| 2026-04-26 17:23 | 29.54587 | -83.53131 | 36935 ft | 497 kts | 153° |
| 2026-04-26 17:23 | 29.48598 | -83.49226 | 36935 ft | 497 kts | 153° |
| 2026-04-26 17:24 | 29.42604 | -83.45321 | 36932 ft | 498 kts | 152° |
| 2026-04-26 17:24 | 29.36593 | -83.41412 | 36943 ft | 494 kts | 153° |
| 2026-04-26 17:25 | 29.30652 | -83.37555 | 36944 ft | 495 kts | 152° |
| 2026-04-26 17:25 | 29.24641 | -83.33717 | 36939 ft | 494 kts | 155° |
| 2026-04-26 17:26 | 29.18437 | -83.30354 | 36943 ft | 492 kts | 159° |
| 2026-04-26 17:26 | 29.12164 | -83.27247 | 36945 ft | 490 kts | 160° |
| 2026-04-26 17:27 | 29.05907 | -83.24175 | 36942 ft | 490 kts | 160° |
| 2026-04-26 17:27 | 28.99627 | -83.21062 | 36945 ft | 490 kts | 159° |
| 2026-04-26 17:28 | 28.93374 | -83.17931 | 36947 ft | 492 kts | 159° |
| 2026-04-26 17:28 | 28.87166 | -83.14806 | 36950 ft | 488 kts | 159° |
| 2026-04-26 17:29 | 28.81978 | -83.12193 | 36949 ft | 491 kts | 158° |
| 2026-04-26 17:29 | 28.74718 | -83.08538 | 36950 ft | 490 kts | 158° |
| 2026-04-26 17:30 | 28.68470 | -83.05397 | 36947 ft | 490 kts | 158° |
| 2026-04-26 17:30 | 28.62240 | -83.02268 | 36949 ft | 491 kts | 158° |
| 2026-04-26 17:31 | 28.55963 | -82.99119 | 36952 ft | 490 kts | 158° |
| 2026-04-26 17:31 | 28.49749 | -82.96007 | 36970 ft | 490 kts | 158° |
| 2026-04-26 17:32 | 28.43515 | -82.92889 | 36962 ft | 489 kts | 158° |
| 2026-04-26 17:32 | 28.37277 | -82.89773 | 36962 ft | 490 kts | 158° |
| 2026-04-26 17:33 | 28.31086 | -82.86683 | 36960 ft | 487 kts | 158° |
| 2026-04-26 17:34 | 28.21729 | -82.82027 | 36967 ft | 487 kts | 158° |
| 2026-04-26 17:34 | 28.15536 | -82.78948 | 36952 ft | 486 kts | 158° |
| 2026-04-26 17:35 | 28.09332 | -82.75866 | 36957 ft | 486 kts | 158° |
| 2026-04-26 17:35 | 28.03148 | -82.72862 | 36964 ft | 485 kts | 160° |
| 2026-04-26 17:36 | 27.96763 | -82.70641 | 36966 ft | 482 kts | 170° |
| 2026-04-26 17:36 | 27.90148 | -82.69250 | 36965 ft | 479 kts | 174° |
| 2026-04-26 17:37 | 27.83577 | -82.68083 | 36968 ft | 480 kts | 174° |
| 2026-04-26 17:37 | 27.76970 | -82.66896 | 36963 ft | 479 kts | 173° |
| 2026-04-26 17:38 | 27.67102 | -82.65035 | 36970 ft | 479 kts | 173° |
| 2026-04-26 17:38 | 27.60555 | -82.63763 | 36967 ft | 477 kts | 173° |
| 2026-04-26 17:39 | 27.53996 | -82.62481 | 36967 ft | 478 kts | 173° |
| 2026-04-26 17:39 | 27.47465 | -82.60936 | 36973 ft | 480 kts | 168° |
| 2026-04-26 17:40 | 27.42123 | -82.59331 | 36971 ft | 478 kts | 167° |
| 2026-04-26 17:40 | 27.34636 | -82.56995 | 36968 ft | 479 kts | 167° |
| 2026-04-26 17:41 | 27.28188 | -82.55029 | 36968 ft | 479 kts | 167° |
| 2026-04-26 17:41 | 27.21732 | -82.53104 | 36969 ft | 478 kts | 168° |
| 2026-04-26 17:42 | 27.15314 | -82.51218 | 36967 ft | 478 kts | 168° |
| 2026-04-26 17:42 | 27.08866 | -82.49333 | 36972 ft | 477 kts | 168° |
| 2026-04-26 17:43 | 27.02473 | -82.47472 | 36968 ft | 477 kts | 167° |
| 2026-04-26 17:43 | 26.96037 | -82.45562 | 36965 ft | 477 kts | 165° |
| 2026-04-26 17:44 | 26.89986 | -82.42579 | 36962 ft | 482 kts | 148° |
| 2026-04-26 17:44 | 26.84602 | -82.38027 | 36953 ft | 482 kts | 141° |
| 2026-04-26 17:45 | 26.79506 | -82.33083 | 36963 ft | 486 kts | 139° |
| 2026-04-26 17:45 | 26.74488 | -82.28126 | 36953 ft | 483 kts | 140° |
| 2026-04-26 17:46 | 26.69440 | -82.23196 | 36527 ft | 478 kts | 140° |
| 2026-04-26 17:46 | 26.66935 | -82.20773 | 36133 ft | 472 kts | 140° |
| 2026-04-26 17:46 | 26.64455 | -82.18401 | 35613 ft | 472 kts | 140° |
| 2026-04-26 17:47 | 26.61968 | -82.16026 | 34930 ft | 473 kts | 140° |
| 2026-04-26 17:47 | 26.60288 | -82.14420 | 34446 ft | 474 kts | 141° |
| 2026-04-26 17:47 | 26.56971 | -82.11252 | 33462 ft | 474 kts | 141° |
| 2026-04-26 17:47 | 26.54434 | -82.08831 | 32742 ft | 476 kts | 141° |
| 2026-04-26 17:48 | 26.51935 | -82.06441 | 31968 ft | 478 kts | 140° |
| 2026-04-26 17:48 | 26.49452 | -82.04003 | 31419 ft | 475 kts | 139° |
| 2026-04-26 17:48 | 26.46999 | -82.01539 | 30920 ft | 479 kts | 139° |
| 2026-04-26 17:48 | 26.44504 | -81.99007 | 30366 ft | 478 kts | 139° |
| 2026-04-26 17:49 | 26.42066 | -81.96526 | 29823 ft | 474 kts | 138° |
| 2026-04-26 17:49 | 26.39645 | -81.94066 | 29281 ft | 470 kts | 139° |
| 2026-04-26 17:49 | 26.37239 | -81.91625 | 28740 ft | 465 kts | 138° |
| 2026-04-26 17:49 | 26.34874 | -81.89232 | 28200 ft | 461 kts | 139° |
| 2026-04-26 17:50 | 26.32501 | -81.86837 | 27663 ft | 457 kts | 139° |
| 2026-04-26 17:50 | 26.30160 | -81.84479 | 27128 ft | 453 kts | 139° |
| 2026-04-26 17:50 | 26.27858 | -81.82165 | 26598 ft | 449 kts | 139° |
| 2026-04-26 17:50 | 26.25619 | -81.79754 | 26062 ft | 445 kts | 133° |
| 2026-04-26 17:51 | 26.23677 | -81.77128 | 25539 ft | 441 kts | 125° |
| 2026-04-26 17:51 | 26.22045 | -81.74255 | 25007 ft | 437 kts | 119° |
| 2026-04-26 17:51 | 26.20616 | -81.71294 | 24472 ft | 434 kts | 116° |
| 2026-04-26 17:51 | 26.19285 | -81.68282 | 23933 ft | 430 kts | 115° |
| 2026-04-26 17:52 | 26.18022 | -81.65305 | 23406 ft | 426 kts | 114° |
| 2026-04-26 17:52 | 26.16777 | -81.62345 | 22885 ft | 423 kts | 114° |
| 2026-04-26 17:52 | 26.15527 | -81.59379 | 22357 ft | 419 kts | 114° |
| 2026-04-26 17:52 | 26.14295 | -81.56480 | 21839 ft | 416 kts | 114° |
| 2026-04-26 17:53 | 26.13053 | -81.53582 | 21321 ft | 412 kts | 114° |
| 2026-04-26 17:53 | 26.11830 | -81.50745 | 20815 ft | 409 kts | 114° |
| 2026-04-26 17:53 | 26.10606 | -81.47920 | 20297 ft | 406 kts | 115° |
| 2026-04-26 17:54 | 26.08160 | -81.42299 | 19247 ft | 400 kts | 114° |
| 2026-04-26 17:54 | 26.06958 | -81.39547 | 18725 ft | 397 kts | 115° |
| 2026-04-26 17:54 | 26.05764 | -81.36809 | 18201 ft | 394 kts | 114° |
| 2026-04-26 17:54 | 26.04582 | -81.34094 | 17682 ft | 391 kts | 115° |
| 2026-04-26 17:55 | 26.03405 | -81.31388 | 17293 ft | 384 kts | 115° |
| 2026-04-26 17:55 | 26.02241 | -81.28715 | 16725 ft | 384 kts | 115° |
| 2026-04-26 17:55 | 26.01092 | -81.26078 | 16197 ft | 382 kts | 115° |
| 2026-04-26 17:55 | 25.99936 | -81.23428 | 15653 ft | 380 kts | 115° |
| 2026-04-26 17:56 | 25.98789 | -81.20798 | 15144 ft | 377 kts | 115° |
| 2026-04-26 17:56 | 25.96514 | -81.15592 | 14146 ft | 372 kts | 115° |
| 2026-04-26 17:57 | 25.94288 | -81.10511 | 13233 ft | 364 kts | 115° |
| 2026-04-26 17:57 | 25.93184 | -81.07990 | 12783 ft | 361 kts | 115° |
| 2026-04-26 17:57 | 25.92095 | -81.05505 | 12308 ft | 358 kts | 115° |
| 2026-04-26 17:57 | 25.91008 | -81.03008 | 11836 ft | 356 kts | 114° |
| 2026-04-26 17:58 | 25.88259 | -80.95875 | 11366 ft | 320 kts | 111° |
| 2026-04-26 17:59 | 25.86571 | -80.91372 | 10632 ft | 315 kts | 111° |
| 2026-04-26 17:59 | 25.85721 | -80.89137 | 10240 ft | 314 kts | 111° |
| 2026-04-26 17:59 | 25.84869 | -80.86912 | 9825 ft | 314 kts | 111° |
| 2026-04-26 17:59 | 25.84021 | -80.84704 | 9451 ft | 312 kts | 112° |
| 2026-04-26 18:00 | 25.83167 | -80.82487 | 9131 ft | 307 kts | 112° |
| 2026-04-26 18:00 | 25.82333 | -80.80325 | 8787 ft | 304 kts | 112° |
| 2026-04-26 18:00 | 25.81510 | -80.78186 | 8455 ft | 301 kts | 112° |
| 2026-04-26 18:00 | 25.80689 | -80.76054 | 8103 ft | 299 kts | 112° |
| 2026-04-26 18:01 | 25.79874 | -80.73938 | 7742 ft | 297 kts | 112° |
| 2026-04-26 18:01 | 25.79072 | -80.71851 | 7411 ft | 294 kts | 112° |
| 2026-04-26 18:01 | 25.78275 | -80.69787 | 7046 ft | 292 kts | 112° |
| 2026-04-26 18:01 | 25.77499 | -80.67714 | 6703 ft | 289 kts | 109° |
| 2026-04-26 18:02 | 25.77052 | -80.65557 | 6425 ft | 282 kts | 92° |
| 2026-04-26 18:02 | 25.77046 | -80.64127 | 6333 ft | 274 kts | 86° |
| 2026-04-26 18:02 | 25.77247 | -80.61396 | 6095 ft | 263 kts | 83° |
| 2026-04-26 18:02 | 25.77399 | -80.59419 | 5893 ft | 251 kts | 85° |
| 2026-04-26 18:03 | 25.77494 | -80.57546 | 5733 ft | 238 kts | 86° |
| 2026-04-26 18:03 | 25.77566 | -80.55717 | 5426 ft | 240 kts | 87° |
| 2026-04-26 18:03 | 25.77642 | -80.53835 | 4922 ft | 249 kts | 86° |
| 2026-04-26 18:03 | 25.77727 | -80.51932 | 4374 ft | 253 kts | 87° |
| 2026-04-26 18:04 | 25.77815 | -80.49985 | 3928 ft | 250 kts | 87° |
| 2026-04-26 18:04 | 25.77898 | -80.48066 | 3485 ft | 249 kts | 87° |
| 2026-04-26 18:04 | 25.77981 | -80.46152 | 3035 ft | 247 kts | 88° |
| 2026-04-26 18:05 | 25.78132 | -80.42656 | 2993 ft | 204 kts | 88° |
| 2026-04-26 18:05 | 25.78199 | -80.41090 | 2734 ft | 212 kts | 88° |
| 2026-04-26 18:05 | 25.78283 | -80.39476 | 2187 ft | 205 kts | 88° |
| 2026-04-26 18:05 | 25.78354 | -80.37962 | 1775 ft | 188 kts | 89° |
| 2026-04-26 18:06 | 25.78410 | -80.36577 | 1417 ft | 175 kts | 89° |
| 2026-04-26 18:06 | 25.78469 | -80.35259 | 1052 ft | 169 kts | 89° |
| 2026-04-26 18:06 | 25.78532 | -80.33971 | 708 ft | 164 kts | 91° |
| 2026-04-26 18:06 | 25.78566 | -80.32744 | 359 ft | 155 kts | 91° |
| 2026-04-26 18:07 | 25.78607 | -80.31626 | 113 ft | 147 kts | 90° |
| 2026-04-26 18:07 | 25.78652 | -80.30527 | 12 ft | 132 kts | 90° |
| 2026-04-26 18:07 | 25.78683 | -80.29744 | 13 ft | 70 kts | 88° |
| 2026-04-26 18:07 | 25.78698 | -80.29473 | 14 ft | 42 kts | 85° |
| 2026-04-26 18:08 | 25.78756 | -80.29218 | 14 ft | 16 kts | 56° |
| 2026-04-26 18:08 | 25.78791 | -80.29173 | 14 ft | 3 kts | 41° |
| 2026-04-26 18:08 | 25.78794 | -80.29172 | 15 ft | 0 kts | 41° |
| 2026-04-26 18:08 | 25.78797 | -80.29168 | 15 ft | 0 kts | 44° |
| 2026-04-26 18:09 | 25.78798 | -80.29166 | 14 ft | 0 kts | 46° |
| 2026-04-26 18:09 | 25.78808 | -80.29149 | 14 ft | 11 kts | 66° |
| 2026-04-26 18:09 | 25.78822 | -80.29043 | 15 ft | 14 kts | 84° |
| 2026-04-26 18:09 | 25.78843 | -80.28937 | 15 ft | 13 kts | 75° |
| 2026-04-26 18:10 | 25.78904 | -80.28869 | 15 ft | 13 kts | 3° |
| 2026-04-26 18:10 | 25.79005 | -80.28873 | 15 ft | 14 kts | 357° |
| 2026-04-26 18:10 | 25.79122 | -80.28880 | 14 ft | 17 kts | 358° |
| 2026-04-26 18:10 | 25.79236 | -80.28881 | 14 ft | 14 kts | 359° |
| 2026-04-26 18:11 | 25.79310 | -80.28883 | 14 ft | 8 kts | 358° |
| 2026-04-26 18:11 | 25.79332 | -80.28885 | 15 ft | 0 kts | 358° |
| 2026-04-26 18:11 | 25.79338 | -80.28885 | 14 ft | 0 kts | 358° |
| 2026-04-26 18:11 | 25.79341 | -80.28885 | 14 ft | 0 kts | 358° |
| 2026-04-26 18:12 | 25.79375 | -80.28886 | 14 ft | 15 kts | 358° |
| 2026-04-26 18:12 | 25.79499 | -80.28893 | 14 ft | 16 kts | 356° |
| 2026-04-26 18:12 | 25.79616 | -80.28899 | 14 ft | 16 kts | 358° |
| 2026-04-26 18:13 | 25.79731 | -80.28905 | 14 ft | 16 kts | 358° |
| 2026-04-26 18:13 | 25.79842 | -80.28910 | 14 ft | 11 kts | 357° |
| 2026-04-26 18:13 | 25.79916 | -80.28899 | 14 ft | 10 kts | 48° |
| 2026-04-26 18:13 | 25.79931 | -80.28836 | 14 ft | 17 kts | 86° |
| 2026-04-26 18:14 | 25.79940 | -80.28645 | 14 ft | 16 kts | 88° |
| 2026-04-26 18:14 | 25.79945 | -80.28522 | 14 ft | 16 kts | 88° |
| 2026-04-26 18:14 | 25.79908 | -80.28430 | 14 ft | 13 kts | 144° |
| 2026-04-26 18:14 | 25.79886 | -80.28336 | 14 ft | 13 kts | 87° |
| 2026-04-26 18:15 | 25.79890 | -80.28236 | 14 ft | 12 kts | 88° |
| 2026-04-26 18:15 | 25.79893 | -80.28136 | 13 ft | 12 kts | 88° |
| 2026-04-26 18:15 | 25.79894 | -80.28039 | 13 ft | 12 kts | 96° |
| 2026-04-26 18:15 | 25.79880 | -80.27947 | 13 ft | 12 kts | 93° |
| 2026-04-26 18:16 | 25.79882 | -80.27859 | 13 ft | 9 kts | 90° |
| 2026-04-26 18:16 | 25.79793 | -80.27827 | 13 ft | 3 kts | 180° |
| 2026-04-26 18:16 | 25.79784 | -80.27827 | 13 ft | 0 kts | 180° |